Time;durP1;ratioP1;P1;durP2;ratioP2;P2;SDS_P1;SDS_P2;PMS_P1;PMS_P2;Temp;Humidity;BMP_temperature;BMP_pressure;BME280_temperature;BME280_humidity;BME280_pressure;Samples;Min_cycle;Max_cycle;Signal;HPM_P1;HPM_P2
2023/07/17 00:01:18;;;;;;;7.78;4.03;;;16.80;99.90;;;;;;5022833;28;20492;-57
2023/07/17 00:03:44;;;;;;;11.85;4.63;;;16.90;99.90;;;;;;5023226;28;20057;-58
2023/07/17 00:06:09;;;;;;;9.98;4.00;;;16.80;99.90;;;;;;5021904;28;20041;-59
2023/07/17 00:08:35;;;;;;;11.45;4.15;;;16.80;99.90;;;;;;5022742;28;20038;-59
2023/07/17 00:11:01;;;;;;;8.60;3.90;;;16.90;99.90;;;;;;5023030;28;20118;-59
2023/07/17 00:13:26;;;;;;;9.23;4.00;;;16.90;99.90;;;;;;5022951;28;20899;-59
2023/07/17 00:15:52;;;;;;;9.95;3.83;;;16.80;99.90;;;;;;5033893;28;20512;-59
2023/07/17 00:18:17;;;;;;;9.13;3.65;;;16.80;99.90;;;;;;5022265;28;20579;-59
2023/07/17 00:20:44;;;;;;;8.77;4.10;;;16.90;99.90;;;;;;5021796;28;20057;-58
2023/07/17 00:23:09;;;;;;;11.13;4.18;;;16.90;99.90;;;;;;5022662;28;20045;-59
2023/07/17 00:25:35;;;;;;;10.13;3.90;;;16.90;99.90;;;;;;5022744;28;20129;-61
2023/07/17 00:28:00;;;;;;;8.07;4.15;;;16.90;99.90;;;;;;5026222;28;20056;-60
2023/07/17 00:30:26;;;;;;;12.27;3.83;;;16.90;99.90;;;;;;5025959;28;20381;-59
2023/07/17 00:32:52;;;;;;;7.60;3.50;;;16.90;99.90;;;;;;5026655;28;20045;-60
2023/07/17 00:35:17;;;;;;;5.68;3.38;;;16.80;99.90;;;;;;5024573;28;20532;-60
2023/07/17 00:37:43;;;;;;;7.72;3.85;;;16.80;99.90;;;;;;5026244;28;20071;-60
2023/07/17 00:40:09;;;;;;;7.95;3.40;;;16.80;99.90;;;;;;5025010;28;20570;-61
2023/07/17 00:42:35;;;;;;;9.07;3.67;;;16.80;99.90;;;;;;5025320;28;20188;-58
2023/07/17 00:45:00;;;;;;;6.47;3.63;;;16.90;99.90;;;;;;5025667;28;20029;-60
2023/07/17 00:47:28;;;;;;;11.00;4.00;;;16.90;99.90;;;;;;5026481;28;20606;-59
2023/07/17 00:49:54;;;;;;;6.35;3.20;;;16.90;99.90;;;;;;5025414;28;20038;-58
2023/07/17 00:52:20;;;;;;;8.73;3.55;;;17.00;99.90;;;;;;5025435;28;20049;-59
2023/07/17 00:54:46;;;;;;;10.10;3.60;;;16.90;99.90;;;;;;5026022;28;20050;-59
2023/07/17 00:57:14;;;;;;;8.43;3.53;;;16.90;99.90;;;;;;5025590;28;20122;-59
2023/07/17 00:59:41;;;;;;;6.95;3.25;;;16.90;99.90;;;;;;5026187;28;20136;-60
2023/07/17 01:02:08;;;;;;;11.68;4.00;;;16.80;99.90;;;;;;5025145;28;20045;-59
2023/07/17 01:04:35;;;;;;;10.45;3.53;;;16.90;99.90;;;;;;5024810;28;20059;-57
2023/07/17 01:07:01;;;;;;;7.18;3.65;;;16.90;99.90;;;;;;5025454;28;20123;-59
2023/07/17 01:09:26;;;;;;;9.63;3.60;;;16.80;99.90;;;;;;5032431;28;20049;-59
2023/07/17 01:11:52;;;;;;;7.43;3.78;;;16.80;99.90;;;;;;5045623;28;20686;-58
2023/07/17 01:14:18;;;;;;;8.02;3.92;;;16.70;99.90;;;;;;5041888;28;20037;-58
2023/07/17 01:16:48;;;;;;;9.18;3.95;;;16.60;99.90;;;;;;5033915;28;20443;-58
2023/07/17 01:19:15;;;;;;;9.10;3.65;;;16.60;99.90;;;;;;5024542;28;20141;-59
2023/07/17 01:21:51;;;;;;;8.32;3.50;;;16.50;99.90;;;;;;5025532;28;20041;-60
2023/07/17 01:24:17;;;;;;;10.57;3.53;;;16.60;99.90;;;;;;5025098;28;20295;-60
2023/07/17 01:26:43;;;;;;;8.20;3.65;;;16.50;99.90;;;;;;5025161;28;20076;-60
2023/07/17 01:29:08;;;;;;;8.48;3.92;;;16.50;99.90;;;;;;5025580;28;20142;-60
2023/07/17 01:31:35;;;;;;;9.75;3.55;;;16.40;99.90;;;;;;5025025;28;20523;-59
2023/07/17 01:34:00;;;;;;;8.32;3.50;;;16.30;99.90;;;;;;5023293;28;20071;-59
2023/07/17 01:36:26;;;;;;;10.35;3.47;;;16.30;99.90;;;;;;5024636;28;20057;-59
2023/07/17 01:38:54;;;;;;;7.57;3.20;;;16.50;99.90;;;;;;5025085;28;20068;-59
2023/07/17 01:41:20;;;;;;;9.35;3.50;;;16.30;99.90;;;;;;5024656;28;20041;-60
2023/07/17 01:43:46;;;;;;;9.45;3.38;;;16.30;99.90;;;;;;5024381;28;20120;-59
2023/07/17 01:46:12;;;;;;;8.32;3.20;;;16.30;99.90;;;;;;5024601;28;20133;-58
2023/07/17 01:48:37;;;;;;;9.52;2.90;;;16.20;99.90;;;;;;5025180;28;20053;-59
2023/07/17 01:51:03;;;;;;;6.85;2.88;;;16.20;99.90;;;;;;5038683;28;20358;-60
2023/07/17 01:53:28;;;;;;;9.32;3.10;;;16.30;99.90;;;;;;5024388;28;20468;-59
2023/07/17 01:55:54;;;;;;;9.90;3.15;;;16.30;99.90;;;;;;5024751;28;20132;-59
2023/07/17 01:58:20;;;;;;;7.68;2.90;;;16.30;99.90;;;;;;5024504;28;20216;-60
2023/07/17 02:00:45;;;;;;;9.52;3.47;;;16.20;99.90;;;;;;5023894;28;20049;-61
2023/07/17 02:03:11;;;;;;;10.25;3.05;;;16.10;99.90;;;;;;5024760;28;20095;-59
2023/07/17 02:05:36;;;;;;;8.38;3.03;;;16.10;99.90;;;;;;5022517;28;20552;-59
2023/07/17 02:08:02;;;;;;;9.55;3.05;;;16.30;99.90;;;;;;5039995;28;20100;-62
2023/07/17 02:10:28;;;;;;;8.90;2.97;;;16.00;99.90;;;;;;5023635;28;20100;-59
2023/07/17 02:12:54;;;;;;;6.25;3.03;;;16.10;99.90;;;;;;5023911;28;20069;-59
2023/07/17 02:15:19;;;;;;;6.38;2.47;;;16.00;99.90;;;;;;5032656;28;20063;-60
2023/07/17 02:17:45;;;;;;;9.55;2.58;;;15.90;99.90;;;;;;5026916;28;20079;-60
2023/07/17 02:20:13;;;;;;;8.85;2.80;;;16.00;99.90;;;;;;5023083;28;20431;-60
2023/07/17 02:22:38;;;;;;;5.78;2.20;;;16.00;99.90;;;;;;5039789;28;20139;-60
2023/07/17 02:25:05;;;;;;;5.72;2.60;;;15.90;99.90;;;;;;5024343;28;20061;-60
2023/07/17 02:27:32;;;;;;;7.15;2.58;;;15.90;99.90;;;;;;5023673;28;20045;-59
2023/07/17 02:29:59;;;;;;;9.20;2.70;;;15.80;99.90;;;;;;5039289;28;20123;-60
2023/07/17 02:32:29;;;;;;;7.03;2.45;;;15.80;99.90;;;;;;5023661;28;20045;-60
2023/07/17 02:34:55;;;;;;;6.70;2.50;;;15.80;99.90;;;;;;5022598;28;20068;-59
2023/07/17 02:37:21;;;;;;;6.07;2.20;;;15.80;99.90;;;;;;5023500;28;20046;-59
2023/07/17 02:39:46;;;;;;;6.72;2.33;;;15.70;99.90;;;;;;5023870;28;20047;-59
2023/07/17 02:42:12;;;;;;;6.68;2.58;;;15.60;99.90;;;;;;5024454;28;20246;-59
2023/07/17 02:44:37;;;;;;;9.02;2.60;;;15.60;99.90;;;;;;5022156;28;20048;-59
2023/07/17 02:47:03;;;;;;;4.80;2.03;;;15.60;99.90;;;;;;5023606;28;20420;-60
2023/07/17 02:49:29;;;;;;;7.38;2.40;;;15.70;99.90;;;;;;5022554;28;20061;-59
2023/07/17 02:51:55;;;;;;;6.55;2.38;;;15.70;99.90;;;;;;5023298;28;20332;-59
2023/07/17 02:54:22;;;;;;;8.75;2.50;;;15.70;99.90;;;;;;5023473;28;20077;-59
2023/07/17 02:56:48;;;;;;;7.43;2.15;;;15.70;99.90;;;;;;5023541;28;20127;-59
2023/07/17 02:59:14;;;;;;;6.55;2.42;;;15.70;99.90;;;;;;5024214;28;20041;-59
2023/07/17 03:01:40;;;;;;;7.95;2.42;;;15.60;99.90;;;;;;5023016;28;20408;-58
2023/07/17 03:04:06;;;;;;;6.80;2.40;;;15.70;99.90;;;;;;5021217;28;20075;-59
2023/07/17 03:06:31;;;;;;;7.50;2.53;;;15.70;99.90;;;;;;5023813;28;20049;-59
2023/07/17 03:08:57;;;;;;;8.63;2.55;;;15.70;99.90;;;;;;5023499;28;20046;-59
2023/07/17 03:11:23;;;;;;;6.55;2.15;;;15.60;99.90;;;;;;5026772;28;20427;-59
2023/07/17 03:13:48;;;;;;;6.32;2.22;;;15.50;99.90;;;;;;5036806;28;20045;-60
2023/07/17 03:16:14;;;;;;;7.40;2.45;;;15.50;99.90;;;;;;5034306;28;20049;-59
2023/07/17 03:18:39;;;;;;;8.63;2.53;;;15.50;99.90;;;;;;5023336;28;20042;-60
2023/07/17 03:21:05;;;;;;;8.45;2.42;;;15.50;99.90;;;;;;5004661;28;20119;-57
2023/07/17 03:23:31;;;;;;;8.65;2.60;;;15.50;99.90;;;;;;5023116;28;20124;-58
2023/07/17 03:25:57;;;;;;;5.90;2.28;;;15.50;99.90;;;;;;5023476;28;20044;-58
2023/07/17 03:28:22;;;;;;;8.40;2.20;;;15.50;99.90;;;;;;5022879;28;20045;-58
2023/07/17 03:30:48;;;;;;;7.03;2.42;;;15.50;99.90;;;;;;5023503;28;20029;-61
2023/07/17 03:33:14;;;;;;;7.57;2.90;;;15.50;99.90;;;;;;5023910;28;20176;-59
2023/07/17 03:35:40;;;;;;;7.03;2.20;;;15.50;99.90;;;;;;5022090;28;20065;-59
2023/07/17 03:38:06;;;;;;;8.55;2.63;;;15.50;99.90;;;;;;5022067;28;20053;-58
2023/07/17 03:40:32;;;;;;;7.63;2.42;;;15.40;99.90;;;;;;5021729;28;20051;-57
2023/07/17 03:42:57;;;;;;;9.35;3.00;;;15.40;99.90;;;;;;5020384;28;20041;-59
2023/07/17 03:45:23;;;;;;;8.18;2.70;;;15.40;99.90;;;;;;5022120;28;20079;-59
2023/07/17 03:47:51;;;;;;;8.70;2.83;;;15.60;99.90;;;;;;5022559;28;20045;-63
2023/07/17 03:50:17;;;;;;;10.48;2.50;;;15.40;99.90;;;;;;5022255;28;20123;-59
2023/07/17 03:52:43;;;;;;;7.68;2.33;;;15.40;99.90;;;;;;5021323;28;20444;-58
2023/07/17 03:55:08;;;;;;;11.93;2.75;;;15.40;99.90;;;;;;5020261;28;20068;-58
2023/07/17 03:57:34;;;;;;;7.05;2.40;;;15.40;99.90;;;;;;5022658;28;20045;-58
2023/07/17 04:00:00;;;;;;;10.90;2.63;;;15.40;99.90;;;;;;5022476;28;20718;-58
2023/07/17 04:02:25;;;;;;;7.53;2.72;;;15.40;99.90;;;;;;5024795;28;20051;-59
2023/07/17 04:04:51;;;;;;;9.98;2.85;;;15.50;99.90;;;;;;5025231;28;20041;-59
2023/07/17 04:07:17;;;;;;;8.27;2.47;;;15.50;99.90;;;;;;5025985;28;20667;-58
2023/07/17 04:09:42;;;;;;;5.90;2.60;;;15.40;99.90;;;;;;5026885;28;20045;-58
2023/07/17 04:12:08;;;;;;;8.25;3.08;;;15.40;99.90;;;;;;5025866;28;20631;-58
2023/07/17 04:14:34;;;;;;;8.73;2.78;;;15.50;99.90;;;;;;5028848;28;20085;-58
2023/07/17 04:17:00;;;;;;;8.70;2.78;;;15.50;99.90;;;;;;5034743;28;20041;-59
2023/07/17 04:19:29;;;;;;;6.95;2.70;;;15.40;99.90;;;;;;5025601;28;20045;-59
2023/07/17 04:21:55;;;;;;;7.38;2.70;;;15.40;99.90;;;;;;5041542;28;20093;-58
2023/07/17 04:24:24;;;;;;;9.32;2.95;;;15.50;99.90;;;;;;5026331;28;20045;-57
2023/07/17 04:26:50;;;;;;;11.60;2.90;;;15.50;99.90;;;;;;5044374;28;20059;-58
2023/07/17 04:29:16;;;;;;;10.25;3.10;;;15.50;99.90;;;;;;5046143;28;20036;-59
2023/07/17 04:31:42;;;;;;;10.85;3.00;;;15.40;99.90;;;;;;5046221;28;20045;-59
2023/07/17 04:34:08;;;;;;;8.43;2.92;;;15.40;99.90;;;;;;5045485;28;20098;-59
2023/07/17 04:36:34;;;;;;;11.23;2.88;;;15.40;99.90;;;;;;5045954;28;20045;-59
2023/07/17 04:38:59;;;;;;;10.27;3.25;;;15.40;99.90;;;;;;5045889;28;20052;-59
2023/07/17 04:41:25;;;;;;;10.60;3.20;;;15.40;99.90;;;;;;5046179;28;20045;-59
2023/07/17 04:43:50;;;;;;;7.40;2.80;;;15.50;99.90;;;;;;5045868;28;20060;-59
2023/07/17 04:46:16;;;;;;;10.73;3.25;;;15.40;99.90;;;;;;5045611;28;20395;-58
2023/07/17 04:48:42;;;;;;;8.90;3.00;;;15.80;99.90;;;;;;5045372;28;20045;-58
2023/07/17 04:51:07;;;;;;;11.73;3.30;;;15.60;99.90;;;;;;5044129;28;20490;-59
2023/07/17 04:53:34;;;;;;;7.65;2.53;;;15.70;99.90;;;;;;5045857;28;20057;-58
2023/07/17 04:55:59;;;;;;;7.90;2.97;;;15.90;99.90;;;;;;5045222;28;20045;-58
2023/07/17 04:58:26;;;;;;;8.85;3.33;;;16.30;99.90;;;;;;5045686;28;20126;-59
2023/07/17 05:00:58;;;;;;;8.18;3.05;;;16.50;99.90;;;;;;5045989;28;20037;-57
2023/07/17 05:03:23;;;;;;;9.25;3.10;;;16.70;99.90;;;;;;5044785;28;20243;-58
2023/07/17 05:05:50;;;;;;;11.35;3.10;;;16.70;99.90;;;;;;5044798;28;20044;-59
2023/07/17 05:08:19;;;;;;;8.50;2.67;;;16.70;99.90;;;;;;5044359;28;20049;-59
2023/07/17 05:10:56;;;;;;;8.50;2.85;;;16.80;99.90;;;;;;5045365;28;20040;-58
2023/07/17 05:13:21;;;;;;;9.10;3.08;;;16.90;99.90;;;;;;5044285;28;20056;-60
2023/07/17 05:15:47;;;;;;;8.15;2.58;;;16.90;99.90;;;;;;5033071;28;20052;-59
2023/07/17 05:18:13;;;;;;;8.30;2.97;;;17.00;99.90;;;;;;5045417;28;20041;-60
2023/07/17 05:20:38;;;;;;;9.90;3.10;;;17.00;99.90;;;;;;5044200;28;20485;-59
2023/07/17 05:23:04;;;;;;;8.07;3.17;;;17.10;99.90;;;;;;5044978;28;20044;-58
2023/07/17 05:25:30;;;;;;;10.07;3.03;;;17.10;99.90;;;;;;5045562;28;20041;-56
2023/07/17 05:27:57;;;;;;;9.38;2.90;;;17.20;99.90;;;;;;5044725;28;20088;-61
2023/07/17 05:30:22;;;;;;;8.20;2.90;;;17.20;99.90;;;;;;5044518;28;20057;-60
2023/07/17 05:32:48;;;;;;;8.88;3.03;;;17.30;99.90;;;;;;5045415;28;20040;-59
2023/07/17 05:35:13;;;;;;;6.88;2.90;;;17.40;99.90;;;;;;5042952;28;20431;-58
2023/07/17 05:37:39;;;;;;;11.43;3.60;;;17.50;99.90;;;;;;5043088;28;20099;-61
2023/07/17 05:40:05;;;;;;;8.85;3.60;;;17.60;99.90;;;;;;5045157;28;20056;-59
2023/07/17 05:42:31;;;;;;;10.52;3.30;;;17.80;99.90;;;;;;5044649;28;20037;-60
2023/07/17 05:44:56;;;;;;;8.55;3.35;;;17.90;99.90;;;;;;5042692;28;20049;-57
2023/07/17 05:47:22;;;;;;;9.32;3.33;;;18.10;99.90;;;;;;5044859;28;20141;-57
2023/07/17 05:49:48;;;;;;;7.43;2.95;;;18.30;99.90;;;;;;5043669;28;20559;-57
2023/07/17 05:52:13;;;;;;;9.80;3.10;;;18.40;99.90;;;;;;5045061;28;20037;-57
2023/07/17 05:54:39;;;;;;;10.98;3.92;;;18.50;99.90;;;;;;5044092;28;20126;-60
2023/07/17 05:57:05;;;;;;;10.77;3.03;;;18.80;99.90;;;;;;5043282;28;20067;-57
2023/07/17 05:59:30;;;;;;;9.30;3.08;;;18.90;99.90;;;;;;5044321;28;20048;-61
2023/07/17 06:01:56;;;;;;;12.00;3.58;;;19.10;99.90;;;;;;5043236;28;20041;-56
2023/07/17 06:04:22;;;;;;;10.18;3.38;;;18.70;99.90;;;;;;5042338;28;20683;-56
2023/07/17 06:06:47;;;;;;;13.82;3.45;;;18.50;99.90;;;;;;5043191;28;20084;-58
2023/07/17 06:09:13;;;;;;;10.57;3.33;;;18.00;99.90;;;;;;5043532;28;20053;-57
2023/07/17 06:11:39;;;;;;;11.18;3.50;;;17.90;99.90;;;;;;5043305;28;20045;-58
2023/07/17 06:14:04;;;;;;;11.70;3.38;;;18.00;99.90;;;;;;5023573;28;20048;-60
2023/07/17 06:16:30;;;;;;;8.73;3.38;;;18.00;99.90;;;;;;5032425;28;20476;-60
2023/07/17 06:18:56;;;;;;;10.18;3.70;;;17.90;99.90;;;;;;5022545;28;20437;-59
2023/07/17 06:21:21;;;;;;;8.70;3.50;;;18.20;99.90;;;;;;5023250;28;20120;-57
2023/07/17 06:23:47;;;;;;;9.95;3.58;;;18.20;99.90;;;;;;5022547;28;20735;-59
2023/07/17 06:26:13;;;;;;;9.50;4.25;;;18.30;99.90;;;;;;5022485;28;20045;-58
2023/07/17 06:28:39;;;;;;;12.13;3.78;;;18.80;99.90;;;;;;5023857;28;20066;-57
2023/07/17 06:31:05;;;;;;;10.98;3.70;;;19.30;99.90;;;;;;5022613;28;20393;-57
2023/07/17 06:33:34;;;;;;;11.52;3.95;;;19.50;99.90;;;;;;5022417;28;20132;-58
2023/07/17 06:36:00;;;;;;;9.70;3.53;;;19.20;99.90;;;;;;5023925;28;20137;-58
2023/07/17 06:38:26;;;;;;;11.02;3.65;;;19.30;99.90;;;;;;5023118;28;20125;-60
2023/07/17 06:40:53;;;;;;;10.13;3.53;;;19.50;99.90;;;;;;5024488;28;20081;-60
2023/07/17 06:43:18;;;;;;;11.65;3.75;;;19.60;99.90;;;;;;5033747;28;20045;-59
2023/07/17 06:45:44;;;;;;;9.15;3.65;;;19.80;99.90;;;;;;5031656;28;20497;-59
2023/07/17 06:48:10;;;;;;;9.90;3.45;;;19.70;99.90;;;;;;5017746;28;20137;-59
2023/07/17 06:50:35;;;;;;;11.07;3.70;;;19.20;99.90;;;;;;5038073;28;20048;-57
2023/07/17 06:53:01;;;;;;;11.85;3.72;;;18.90;99.90;;;;;;5023399;28;20059;-59
2023/07/17 06:55:27;;;;;;;10.73;3.78;;;18.70;99.90;;;;;;5026032;28;20041;-60
2023/07/17 06:57:53;;;;;;;10.75;3.60;;;18.50;99.90;;;;;;5043154;28;20108;-58
2023/07/17 07:00:19;;;;;;;9.10;3.90;;;18.70;99.90;;;;;;5043588;28;20072;-59
2023/07/17 07:02:45;;;;;;;10.43;4.22;;;19.00;99.90;;;;;;5043452;28;20053;-59
2023/07/17 07:05:10;;;;;;;9.45;3.58;;;19.30;99.90;;;;;;5042225;28;20041;-58
2023/07/17 07:07:36;;;;;;;11.85;3.72;;;19.40;99.90;;;;;;5033200;28;20392;-58
2023/07/17 07:10:02;;;;;;;12.27;4.20;;;19.50;99.90;;;;;;5022877;28;20052;-57
2023/07/17 07:12:28;;;;;;;10.23;4.25;;;19.40;99.90;;;;;;5022195;28;20108;-60
2023/07/17 07:14:53;;;;;;;13.57;4.63;;;19.20;99.90;;;;;;5040451;28;20041;-58
2023/07/17 07:17:19;;;;;;;11.98;4.63;;;18.90;99.90;;;;;;5029579;28;20574;-58
2023/07/17 07:19:44;;;;;;;14.07;4.75;;;18.70;99.90;;;;;;5024121;28;20049;-59
2023/07/17 07:22:10;;;;;;;10.88;4.63;;;18.80;99.90;;;;;;5033414;28;20049;-60
2023/07/17 07:24:36;;;;;;;16.45;4.43;;;19.00;99.90;;;;;;5032861;28;20043;-57
2023/07/17 07:27:02;;;;;;;9.70;4.03;;;19.20;99.90;;;;;;5034020;28;20040;-57
2023/07/17 07:29:27;;;;;;;12.98;4.72;;;19.40;99.90;;;;;;5037880;28;20047;-58
2023/07/17 07:31:53;;;;;;;10.43;3.72;;;19.40;99.90;;;;;;5043674;28;20048;-59
2023/07/17 07:34:19;;;;;;;13.23;4.60;;;19.50;99.90;;;;;;5042723;28;20076;-58
2023/07/17 07:36:44;;;;;;;11.10;4.72;;;19.50;99.90;;;;;;5040219;28;20504;-58
2023/07/17 07:39:10;;;;;;;10.88;4.22;;;19.50;99.90;;;;;;5043741;28;20095;-59
2023/07/17 07:41:36;;;;;;;13.63;4.78;;;19.40;99.90;;;;;;5045397;28;20666;-58
2023/07/17 07:44:02;;;;;;;8.98;3.75;;;19.20;99.90;;;;;;5046118;28;20095;-59
2023/07/17 07:46:28;;;;;;;12.88;4.45;;;19.00;99.90;;;;;;5047091;28;20045;-58
2023/07/17 07:48:53;;;;;;;12.07;4.25;;;18.90;99.90;;;;;;5043786;28;20060;-58
2023/07/17 07:51:19;;;;;;;10.95;4.60;;;19.20;99.90;;;;;;5044740;28;20045;-58
2023/07/17 07:53:45;;;;;;;8.82;4.07;;;19.30;99.90;;;;;;5038981;28;20780;-59
2023/07/17 07:56:10;;;;;;;9.02;4.00;;;19.30;99.90;;;;;;5031927;28;20069;-59
2023/07/17 07:58:36;;;;;;;12.50;4.40;;;19.60;99.90;;;;;;5031542;28;20467;-59
2023/07/17 08:01:02;;;;;;;10.55;4.50;;;19.80;99.90;;;;;;5031627;28;20041;-58
2023/07/17 08:03:28;;;;;;;9.27;4.22;;;19.80;99.90;;;;;;5030856;28;20054;-59
2023/07/17 08:05:55;;;;;;;8.82;5.00;;;19.70;99.90;;;;;;5031668;28;20128;-60
2023/07/17 08:08:20;;;;;;;9.98;4.80;;;19.60;99.90;;;;;;5032238;28;20048;-60
2023/07/17 08:10:46;;;;;;;12.23;4.28;;;19.50;99.90;;;;;;5030256;28;20041;-59
2023/07/17 08:13:11;;;;;;;10.65;4.22;;;19.50;99.90;;;;;;5032286;28;20064;-60
2023/07/17 08:15:37;;;;;;;10.43;4.22;;;19.50;99.90;;;;;;5030689;28;20088;-60
2023/07/17 08:18:03;;;;;;;10.65;4.75;;;19.60;99.90;;;;;;5029606;28;20057;-59
2023/07/17 08:20:29;;;;;;;15.57;4.60;;;19.60;99.90;;;;;;5029578;28;20055;-62
2023/07/17 08:22:55;;;;;;;6.93;2.95;;;19.70;99.90;;;;;;5031507;28;20045;-61
2023/07/17 08:25:24;;;;;;;8.77;3.10;;;19.40;99.90;;;;;;5032566;28;20052;-56
2023/07/17 08:27:49;;;;;;;10.38;3.72;;;19.00;99.90;;;;;;5031863;28;20044;-58
2023/07/17 08:30:15;;;;;;;8.32;2.83;;;18.20;99.90;;;;;;5031918;28;20392;-59
2023/07/17 08:32:41;;;;;;;9.55;3.78;;;17.70;99.90;;;;;;5031838;28;20041;-59
2023/07/17 08:35:07;;;;;;;8.50;3.53;;;17.40;99.90;;;;;;5028765;28;20049;-59
2023/07/17 08:37:33;;;;;;;11.48;4.00;;;17.00;99.90;;;;;;5032135;28;20049;-59
2023/07/17 08:39:59;;;;;;;9.25;3.63;;;16.60;99.90;;;;;;5032234;28;20106;-57
2023/07/17 08:42:24;;;;;;;11.13;4.00;;;16.50;99.90;;;;;;5031959;28;20044;-56
2023/07/17 08:44:52;;;;;;;10.93;4.00;;;16.20;99.90;;;;;;5029942;28;20060;-57
2023/07/17 08:47:18;;;;;;;11.27;4.47;;;16.00;99.90;;;;;;5030339;28;20064;-57
2023/07/17 08:49:47;;;;;;;9.18;3.80;;;15.80;99.90;;;;;;5031753;28;20045;-57
2023/07/17 08:52:14;;;;;;;11.10;4.20;;;15.90;99.90;;;;;;5032810;28;20056;-59
2023/07/17 08:54:40;;;;;;;9.07;4.28;;;15.90;99.90;;;;;;5031155;28;20047;-59
2023/07/17 08:57:06;;;;;;;9.65;4.22;;;16.10;99.90;;;;;;5031313;28;20033;-58
2023/07/17 08:59:34;;;;;;;11.18;4.63;;;16.30;99.90;;;;;;5031630;28;20038;-58
2023/07/17 09:02:00;;;;;;;10.70;4.57;;;16.90;99.90;;;;;;5033403;28;20059;-58
2023/07/17 09:04:27;;;;;;;9.15;4.57;;;17.30;99.90;;;;;;5030905;28;20117;-59
2023/07/17 09:06:53;;;;;;;11.80;5.07;;;17.60;99.90;;;;;;5031297;28;20068;-59
2023/07/17 09:09:19;;;;;;;9.30;4.75;;;17.80;99.90;;;;;;5028901;28;20053;-56
2023/07/17 09:11:44;;;;;;;10.10;4.85;;;17.90;99.90;;;;;;5030989;28;20049;-55
2023/07/17 09:14:10;;;;;;;10.90;4.65;;;18.00;99.90;;;;;;5031065;28;20494;-59
2023/07/17 09:16:39;;;;;;;11.80;4.88;;;17.90;99.90;;;;;;5030293;28;20404;-60
2023/07/17 09:19:04;;;;;;;8.75;4.32;;;17.90;99.90;;;;;;5028889;28;20140;-57
2023/07/17 09:21:30;;;;;;;9.63;4.20;;;17.90;99.90;;;;;;5030812;28;20120;-59
2023/07/17 09:23:57;;;;;;;10.00;4.35;;;18.00;99.90;;;;;;5030971;28;20046;-59
2023/07/17 09:26:24;;;;;;;12.50;5.13;;;17.80;99.90;;;;;;5031783;28;20091;-59
2023/07/17 09:28:56;;;;;;;9.32;4.50;;;17.70;99.90;;;;;;5030206;28;20410;-60
2023/07/17 09:31:32;;;;;;;14.70;5.40;;;17.80;99.90;;;;;;5031079;28;20057;-58
2023/07/17 09:34:01;;;;;;;14.13;4.93;;;17.80;99.90;;;;;;5029574;28;20451;-62
2023/07/17 09:36:27;;;;;;;12.27;4.82;;;17.90;99.90;;;;;;5030520;28;20076;-59
2023/07/17 09:38:55;;;;;;;12.00;4.72;;;18.00;99.90;;;;;;5031103;28;20041;-59
2023/07/17 09:41:23;;;;;;;11.82;5.32;;;18.20;99.90;;;;;;5031139;28;20048;-59
2023/07/17 09:44:01;;;;;;;10.40;4.38;;;18.10;99.90;;;;;;5030253;28;20052;-59
2023/07/17 09:46:27;;;;;;;11.68;4.47;;;18.00;99.90;;;;;;5031639;28;20052;-59
2023/07/17 09:48:56;;;;;;;9.18;4.30;;;17.90;99.90;;;;;;5029521;28;20275;-60
2023/07/17 09:51:23;;;;;;;9.02;3.97;;;17.90;99.90;;;;;;5031055;28;20040;-59
2023/07/17 09:53:50;;;;;;;11.93;4.43;;;18.10;99.90;;;;;;5030766;28;20080;-58
2023/07/17 09:56:16;;;;;;;9.70;3.67;;;18.30;99.90;;;;;;5030083;28;20103;-58
2023/07/17 09:58:53;;;;;;;8.00;3.45;;;18.70;99.90;;;;;;5030154;28;20490;-59
2023/07/17 10:01:22;;;;;;;13.68;4.07;;;19.00;99.90;;;;;;5030278;28;20059;-58
2023/07/17 10:03:49;;;;;;;7.97;3.42;;;19.40;99.90;;;;;;5028585;28;20053;-58
2023/07/17 10:06:17;;;;;;;9.15;3.40;;;19.80;99.90;;;;;;5029399;28;20058;-59
2023/07/17 10:08:49;;;;;;;7.90;3.35;;;20.00;99.90;;;;;;5030748;28;20077;-57
2023/07/17 10:11:19;;;;;;;6.10;2.63;;;20.30;99.90;;;;;;5031548;28;20037;-57
2023/07/17 10:13:46;;;;;;;6.97;2.75;;;20.50;99.90;;;;;;5028797;28;20049;-58
2023/07/17 10:16:15;;;;;;;6.85;2.78;;;20.70;99.90;;;;;;5029575;28;20086;-60
2023/07/17 10:18:54;;;;;;;6.35;2.13;;;20.90;99.90;;;;;;5027897;28;20037;-60
2023/07/17 10:21:21;;;;;;;5.53;2.08;;;21.00;98.20;;;;;;5030015;28;20037;-59
2023/07/17 10:23:48;;;;;;;7.13;2.00;;;21.00;98.30;;;;;;5029939;28;20080;-54
2023/07/17 10:26:19;;;;;;;5.13;2.13;;;21.10;96.30;;;;;;5031242;28;20163;-56
2023/07/17 10:28:49;;;;;;;5.65;2.20;;;21.20;97.00;;;;;;5027512;28;20052;-57
2023/07/17 10:31:25;;;;;;;6.68;2.30;;;21.30;96.90;;;;;;5029848;28;20103;-59
2023/07/17 10:33:59;;;;;;;8.18;2.88;;;21.30;97.30;;;;;;5028602;28;20132;-59
2023/07/17 10:36:44;;;;;;;5.60;2.40;;;21.10;97.10;;;;;;5030521;28;20060;-57
2023/07/17 10:39:17;;;;;;;8.05;2.65;;;21.00;97.30;;;;;;5029750;28;20036;-57
2023/07/17 10:41:43;;;;;;;6.35;2.60;;;21.00;96.90;;;;;;5031826;28;20052;-58
2023/07/17 10:44:15;;;;;;;5.78;2.10;;;21.10;97.00;;;;;;5030566;28;20582;-56
2023/07/17 10:46:41;;;;;;;6.07;1.83;;;21.20;96.10;;;;;;5030134;28;20041;-58
2023/07/17 10:49:08;;;;;;;6.45;2.35;;;21.40;95.90;;;;;;5037462;28;20040;-60
2023/07/17 10:51:36;;;;;;;8.00;2.33;;;21.50;94.40;;;;;;5029889;28;20037;-57
2023/07/17 10:54:02;;;;;;;5.47;1.90;;;21.50;94.50;;;;;;5029709;28;20118;-57
2023/07/17 10:56:31;;;;;;;4.53;1.92;;;21.60;94.80;;;;;;5027024;28;20695;-58
2023/07/17 10:58:57;;;;;;;5.20;2.08;;;21.80;94.90;;;;;;5031036;28;20049;-63
2023/07/17 11:01:22;;;;;;;6.55;2.00;;;21.80;93.30;;;;;;5028339;28;20052;-58
2023/07/17 11:03:49;;;;;;;4.32;1.95;;;21.90;93.30;;;;;;5028156;28;20045;-57
2023/07/17 11:06:19;;;;;;;4.75;2.05;;;21.80;93.20;;;;;;5028718;28;20045;-50
2023/07/17 11:08:49;;;;;;;5.65;2.03;;;21.90;93.10;;;;;;5030010;28;20069;-51
2023/07/17 11:11:15;;;;;;;4.70;1.90;;;21.90;92.40;;;;;;5028589;28;20629;-50
2023/07/17 11:13:44;;;;;;;5.60;2.08;;;21.90;92.70;;;;;;5028349;28;20045;-58
2023/07/17 11:16:10;;;;;;;4.40;1.90;;;22.00;92.90;;;;;;5029246;28;20686;-55
2023/07/17 11:18:47;;;;;;;4.25;2.10;;;22.00;93.10;;;;;;5030230;28;20052;-55
2023/07/17 11:21:14;;;;;;;6.60;2.22;;;22.00;93.60;;;;;;5029338;28;20037;-54
2023/07/17 11:23:54;;;;;;;7.55;2.33;;;22.10;92.50;;;;;;5029073;28;20114;-51
2023/07/17 11:26:24;;;;;;;6.47;1.85;;;22.10;92.80;;;;;;5028688;28;20045;-51
2023/07/17 11:28:55;;;;;;;4.82;1.95;;;22.20;93.60;;;;;;5028997;28;20141;-52
2023/07/17 11:31:27;;;;;;;5.65;1.98;;;22.50;92.30;;;;;;5028390;28;20434;-50
2023/07/17 11:34:10;;;;;;;5.05;1.90;;;22.40;92.00;;;;;;5027520;28;20055;-58
2023/07/17 11:36:40;;;;;;;4.82;1.85;;;22.40;92.50;;;;;;5029497;28;20128;-54
2023/07/17 11:39:20;;;;;;;4.80;1.90;;;22.50;91.50;;;;;;5029471;28;20037;-51
2023/07/17 11:41:47;;;;;;;5.57;2.00;;;22.60;89.90;;;;;;5029187;28;20081;-58
2023/07/17 11:44:21;;;;;;;4.75;1.80;;;22.60;90.20;;;;;;5029086;28;20029;-60
2023/07/17 11:46:47;;;;;;;;;;;22.70;91.00;;;;;;5029966;28;20053;-46
2023/07/17 11:49:14;;;;;;;4.60;2.20;;;22.60;90.50;;;;;;5027899;28;19924;-52
2023/07/17 11:51:42;;;;;;;4.60;1.90;;;22.40;90.70;;;;;;5028225;28;20049;-47
2023/07/17 11:54:08;;;;;;;3.95;2.20;;;22.30;90.90;;;;;;5028241;28;20717;-52
2023/07/17 11:56:35;;;;;;;5.75;1.92;;;22.20;90.80;;;;;;5029030;28;20037;-55
2023/07/17 11:59:02;;;;;;;5.07;2.30;;;22.20;91.30;;;;;;5028804;28;20045;-47
2023/07/17 12:01:27;;;;;;;4.10;1.92;;;22.30;91.30;;;;;;5028179;28;20083;-53
2023/07/17 12:03:53;;;;;;;6.10;2.20;;;22.40;90.60;;;;;;5027377;28;20080;-60
2023/07/17 12:06:19;;;;;;;6.72;2.50;;;22.40;91.00;;;;;;5028230;28;20052;-50
2023/07/17 12:08:46;;;;;;;5.07;2.28;;;22.20;91.80;;;;;;5028692;28;20108;-51
2023/07/17 12:11:12;;;;;;;4.82;2.15;;;22.20;91.70;;;;;;5027451;28;20045;-43
2023/07/17 12:13:38;;;;;;;5.97;2.50;;;22.20;91.50;;;;;;5027552;28;20049;-56
2023/07/17 12:16:04;;;;;;;4.63;2.17;;;22.30;91.60;;;;;;5035921;28;20495;-58
2023/07/17 12:18:29;;;;;;;8.18;2.50;;;22.40;92.20;;;;;;5024269;28;20412;-60
2023/07/17 12:20:55;;;;;;;5.40;2.25;;;22.30;93.10;;;;;;5027259;28;20044;-59
2023/07/17 12:23:22;;;;;;;4.07;1.80;;;22.00;94.20;;;;;;5030241;28;20049;-59
2023/07/17 12:25:48;;;;;;;4.88;1.80;;;21.70;93.30;;;;;;5031258;28;20052;-56
2023/07/17 12:28:14;;;;;;;5.88;2.08;;;21.50;93.90;;;;;;5030898;28;20744;-57
2023/07/17 12:30:41;;;;;;;7.10;1.90;;;21.50;94.10;;;;;;5030999;28;20038;-58
2023/07/17 12:33:06;;;;;;;5.32;1.95;;;21.70;94.30;;;;;;5031463;28;20035;-57
2023/07/17 12:35:32;;;;;;;7.03;2.30;;;22.00;93.80;;;;;;5032299;28;20120;-58
2023/07/17 12:37:57;;;;;;;4.10;1.90;;;22.20;93.10;;;;;;5031375;28;20244;-58
2023/07/17 12:40:23;;;;;;;4.47;2.00;;;22.30;92.60;;;;;;5032682;28;20407;-58